Have a Safe July 4th! 

Flight Track Log - Related Links

Times and Time Zones

All times are in EDT time to prevent confusion due to time zone crossing. See the SWA525 flight status page for this flight to view local times or setup timezone preferences in your user account.

Time Position Orientation Groundspeed Altitude Reporting Facility
EDT Latitude Longitude Course Direction KTS MPH feet Rate Location/Type
Sun 02:35:24 PM 34.7372 -92.1944 35° Northeast 170 196 1,300  Level Memphis Center
Sun 02:35:48 PM 34.7519 -92.1819 35° Northeast 175 201 2,200 2,143 Climbing Memphis Center
Sun 02:36:48 PM 34.8036 -92.2161 332° Northwest 235 270 4,300 2,526 Climbing Memphis Center
Sun 02:38:20 PM 34.7581 -92.3289 244° Southwest 276 318 8,600 2,803 Climbing Memphis Center
Sun 02:39:20 PM 34.7006 -92.4058 228° Southwest 300 345 11,400 2,750 Climbing Memphis Center
Sun 02:40:20 PM 34.6425 -92.5053 235° Southwest 337 388 14,100 2,750 Climbing Memphis Center
Sun 02:41:20 PM 34.6031 -92.6206 247° West 357 411 16,900 2,650 Climbing Memphis Center
Sun 02:42:20 PM 34.5633 -92.7406 248° West 376 433 19,400 2,450 Climbing Memphis Center
Sun 02:43:20 PM 34.5211 -92.8603 247° West 388 447 21,800 2,400 Climbing Memphis Center
Sun 02:44:20 PM 34.4789 -92.9850 248° West 400 460 24,200 2,350 Climbing Memphis Center
Sun 02:45:20 PM 34.4367 -93.1122 248° West 400 460 26,500 1,900 Climbing Memphis Center
Sun 02:46:20 PM 34.3919 -93.2389 247° West 407 468 28,000 1,600 Climbing Memphis Center
Sun 02:47:20 PM 34.3453 -93.3658 246° West 407 468 29,700 1,774 Climbing Memphis Center
Sun 02:48:15 PM 34.3042 -93.4967 249° West 409 471 31,400 1,565 Climbing Fort Worth Center
Sun 02:49:15 PM 34.2603 -93.6242 247° West 392 451 32,700 1,300 Climbing Fort Worth Center
Sun 02:50:15 PM 34.2139 -93.7494 246° West 405 466 34,000 650 Climbing Fort Worth Center
Sun 02:51:15 PM 34.1717 -93.8767 248° West 405 466 34,000  Level Fort Worth Center
Sun 02:52:15 PM 34.1250 -94.0039 246° West 410 472 34,000  Level Fort Worth Center
Sun 02:53:15 PM 34.0803 -94.1311 247° West 410 472 34,000  Level Fort Worth Center
Sun 02:54:15 PM 34.0336 -94.2556 246° West 410 472 34,000  Level Fort Worth Center
Sun 02:55:15 PM 33.9886 -94.3850 247° West 410 472 34,000  Level Fort Worth Center
Sun 02:56:15 PM 33.9417 -94.5144 246° West 416 479 34,000 -250 Level Fort Worth Center
Sun 02:57:15 PM 33.8964 -94.6383 246° West 421 484 33,500 -800 Descending Fort Worth Center
Sun 02:58:15 PM 33.8511 -94.7600 246° West 416 479 32,400 -1,000 Descending Fort Worth Center
Sun 02:59:15 PM 33.8056 -94.8814 246° West 411 473 31,500 -1,000 Descending Fort Worth Center
Sun 03:00:15 PM 33.7642 -95.0000 247° West 401 461 30,400 -1,100 Descending Fort Worth Center
Sun 03:01:15 PM 33.7203 -95.1136 245° Southwest 390 449 29,300 -1,050 Descending Fort Worth Center
Sun 03:02:15 PM 33.6806 -95.2219 246° West 375 432 28,300 -950 Descending Fort Worth Center
Sun 03:03:15 PM 33.6386 -95.3353 246° West 368 423 27,400 -1,500 Descending Fort Worth Center
Sun 03:04:15 PM 33.5947 -95.4533 246° West 373 429 25,300 -2,200 Descending Fort Worth Center
Sun 03:05:15 PM 33.5506 -95.5717 246° West 385 443 23,000 -2,250 Descending Fort Worth Center
Sun 03:06:15 PM 33.5103 -95.6844 247° West 378 435 20,800 -2,100 Descending Fort Worth Center
Sun 03:07:15 PM 33.4719 -95.7847 245° Southwest 373 429 18,800 -2,100 Descending Fort Worth Center
Sun 03:08:15 PM 33.4297 -95.9000 246° West 359 413 16,600 -2,200 Descending Fort Worth Center
Sun 03:09:15 PM 33.3892 -96.0078 246° West 359 413 14,400 -2,200 Descending Fort Worth Center
Sun 03:10:15 PM 33.3486 -96.1128 245° Southwest 359 413 12,200 -2,000 Descending Fort Worth Center
Sun 03:11:15 PM 33.3100 -96.2128 245° Southwest 347 399 10,400 -1,350 Descending Fort Worth Center
Sun 03:12:15 PM 33.2753 -96.3053 246° West 316 364 9,500 -700 Descending Fort Worth Center
Sun 03:13:15 PM 33.2319 -96.3853 237° Southwest 301 346 9,000 -850 Descending Fort Worth Center
Sun 03:14:15 PM 33.1806 -96.4628 232° Southwest 301 346 7,800 -1,200 Descending Fort Worth Center
Sun 03:15:15 PM 33.1161 -96.5131 213° Southwest 287 330 6,600 -900 Descending Fort Worth Center
Sun 03:16:15 PM 33.0433 -96.5461 201° Southwest 282 325 6,000 -650 Descending Fort Worth Center
Sun 03:17:15 PM 32.9706 -96.5789 201° Southwest 287 330 5,300 -950 Descending Fort Worth Center
Sun 03:18:15 PM 32.9081 -96.6092 202° Southwest 282 325 4,100 -650 Descending Fort Worth Center
Sun 03:19:15 PM 32.8372 -96.6394 200° South 262 302 4,000 -150 Descending Fort Worth Center
Sun 03:20:15 PM 32.7811 -96.6547 193° South 245 282 3,800 -500 Descending Fort Worth Center
Sun 03:21:15 PM 32.7353 -96.7069 224° Southwest 205 236 3,000 -700 Descending Fort Worth Center
Sun 03:22:15 PM 32.7692 -96.7536 311° West 158 182 2,400 -673 Descending Fort Worth Center
Sun 03:23:02 PM 32.8000 -96.7833 321° Northwest 158 182 1,800 -729 Descending Dallas / Fort Worth TRACON
Sun 03:24:02 PM 32.8167 -96.8167 301° West 130 150 1,100 -700 Descending Dallas / Fort Worth TRACON
Sun 03:26:00 PM 32.8333 -96.8500 270° West  Level FlightAware Approximate

Login

Don't have an account? Register now (free) for customized features, flight alerts, and more!